Hovedside
METAR-TAF:

METAR-TAF

Lufthavner :

Windhoek Hosea Kutako internasjonale lufthavn

Windhoek, Namibia

breddegrad: 22-29S, lengdegrad: 017-28E, høyde over havet: 1715 m

Gjeldene værobservasjon

Denne rapporten ble laget for 4 timer og 54 minutter siden, klokken 10:00 UTC
Vind 5 kt fra Nordvest
Temperatur 25°C
Luftfuktighet 11%
Trykk 1027 hPa
Sikt 10 km eller mer
ingen skyer under 1500 m og ingen bygeskyer

METAR: FYWH 181000Z 31005KT CAVOK 25/M08 Q1027 NOSIG

Tid: 16:54 (14:54 UTC)

Varsel

Denne rapporten ble laget for 4 timer og 54 minutter siden, klokken 10:00 UTC
Varsel gyldig fra 18. klokken 12 UTC til 19. klokken 12 UTC
Vind 3 kt fra Nordvest
Sikt 10 km eller mer
ingen skyer under 1500 m og ingen bygeskyer
Blir
fra 18. klokken 13 UTC til 18. klokken 15 UTC
Vind 13 kt fra Vest-nordvest
Blir
fra 18. klokken 19 UTC til 18. klokken 21 UTC
Vind 4 kt fra Vest-sørvest

TAF: FYWH 181000Z 1812/1912 31003KT CAVOK BECMG 1813/1815 30013KT BECMG 1819/1821 24004KT

Værobservasjoner og værvarsel for over 4000 flyplasser (METAR- og TAF-rapporter).

Tilgjengelige stasjoner er representert av de røde og gule prikkene på kartet.

Hold musepekeren over prikken for å se navnet på stasjonen.

Klikk så for å se værobservasjoner og -varsler.

For å forandre kartet kan du klikke på den grønne knappen med svart kryss for å zoome inn, på den grønne knappen med strek for å zoome ut, eller på de grønne pilene for å se tilstøtende kart.


METAR-TAF: